createdAt,value
2023-04-27T00:00:19.536Z,954.00
2023-04-27T00:01:19.606Z,972.00
2023-04-27T00:02:19.826Z,932.00
2023-04-27T00:03:19.878Z,957.00
2023-04-27T00:04:19.907Z,945.00
2023-04-27T00:05:19.885Z,960.00
2023-04-27T00:06:19.914Z,955.00
2023-04-27T00:07:19.956Z,942.00
2023-04-27T00:08:20.023Z,943.00
2023-04-27T00:09:20.069Z,915.00
2023-04-27T00:10:20.129Z,940.00
2023-04-27T00:11:20.185Z,947.00
2023-04-27T00:12:20.232Z,968.00
2023-04-27T00:13:20.288Z,985.00
2023-04-27T00:14:20.366Z,971.00
2023-04-27T00:15:20.426Z,977.00
2023-04-27T00:16:20.520Z,968.00
2023-04-27T00:17:20.558Z,996.00
2023-04-27T00:18:20.578Z,980.00
2023-04-27T00:19:20.654Z,971.00
2023-04-27T00:20:20.752Z,976.00
2023-04-27T00:21:20.817Z,973.00
2023-04-27T00:22:20.840Z,952.00
2023-04-27T00:23:20.901Z,947.00
2023-04-27T00:24:20.947Z,952.00
2023-04-27T00:25:20.981Z,961.00
2023-04-27T00:26:21.035Z,961.00
2023-04-27T00:27:21.113Z,936.00
2023-04-27T00:28:21.172Z,935.00
2023-04-27T00:29:21.234Z,942.00
2023-04-27T00:30:21.295Z,950.00
2023-04-27T00:31:21.436Z,934.00
2023-04-27T00:32:21.529Z,927.00
2023-04-27T00:33:21.472Z,930.00
2023-04-27T00:34:21.535Z,934.00
2023-04-27T00:35:21.592Z,946.00
2023-04-27T00:36:21.641Z,955.00
2023-04-27T00:37:21.693Z,956.00
2023-04-27T00:38:21.731Z,955.00
2023-04-27T00:39:21.778Z,967.00
2023-04-27T00:40:21.851Z,946.00
2023-04-27T00:41:21.914Z,953.00
2023-04-27T00:42:21.965Z,949.00
2023-04-27T00:43:22.034Z,942.00
2023-04-27T00:44:22.063Z,940.00
2023-04-27T00:45:22.134Z,948.00
2023-04-27T00:46:22.196Z,955.00
2023-04-27T00:47:22.266Z,964.00
2023-04-27T00:48:22.314Z,940.00
2023-04-27T00:49:22.404Z,951.00
2023-04-27T00:50:22.419Z,948.00
2023-04-27T00:51:22.471Z,937.00
2023-04-27T00:52:22.541Z,941.00
2023-04-27T00:53:22.608Z,945.00
2023-04-27T00:54:22.633Z,966.00
2023-04-27T00:55:22.705Z,965.00
2023-04-27T00:56:22.756Z,970.00
2023-04-27T00:57:22.783Z,958.00
2023-04-27T00:58:22.822Z,950.00
2023-04-27T00:59:22.871Z,981.00
2023-04-27T01:00:22.919Z,974.00
2023-04-27T01:01:23.019Z,976.00
2023-04-27T01:02:23.133Z,969.00
2023-04-27T01:03:23.211Z,974.00
2023-04-27T01:04:23.234Z,931.00
2023-04-27T01:05:23.140Z,945.00
2023-04-27T01:06:23.184Z,965.00
2023-04-27T01:07:23.233Z,961.00
2023-04-27T01:08:23.257Z,964.00
2023-04-27T01:09:23.316Z,959.00
2023-04-27T01:10:23.354Z,970.00
2023-04-27T01:11:23.424Z,958.00
2023-04-27T01:12:23.493Z,977.00
2023-04-27T01:13:23.544Z,974.00
2023-04-27T01:14:23.587Z,960.00
2023-04-27T01:15:23.635Z,948.00
2023-04-27T01:16:23.694Z,947.00
2023-04-27T01:17:23.759Z,958.00
2023-04-27T01:18:23.760Z,938.00
2023-04-27T01:19:23.831Z,947.00
2023-04-27T01:20:23.881Z,936.00
2023-04-27T01:21:23.916Z,957.00
2023-04-27T01:22:23.963Z,944.00
2023-04-27T01:23:24.019Z,957.00
2023-04-27T01:24:24.042Z,949.00
2023-04-27T01:25:24.095Z,947.00
2023-04-27T01:26:24.131Z,940.00
2023-04-27T01:27:24.173Z,937.00
2023-04-27T01:28:24.239Z,933.00
2023-04-27T01:29:24.313Z,921.00
2023-04-27T01:30:24.356Z,961.00
2023-04-27T01:31:24.436Z,962.00
2023-04-27T01:32:24.444Z,957.00
2023-04-27T01:33:24.502Z,960.00
2023-04-27T01:34:24.534Z,950.00
2023-04-27T01:35:25.699Z,956.00
2023-04-27T01:36:24.555Z,966.00
2023-04-27T01:37:24.543Z,947.00
2023-04-27T01:38:24.538Z,954.00
2023-04-27T01:39:24.549Z,951.00
2023-04-27T01:40:24.541Z,937.00
2023-04-27T01:41:24.536Z,943.00
2023-04-27T01:42:24.528Z,937.00
2023-04-27T01:43:24.529Z,945.00
2023-04-27T01:44:24.516Z,948.00
2023-04-27T01:45:24.511Z,962.00
2023-04-27T01:46:24.585Z,942.00
2023-04-27T01:47:24.504Z,951.00
2023-04-27T01:48:24.490Z,963.00
2023-04-27T01:49:24.483Z,953.00
2023-04-27T01:50:24.472Z,956.00
2023-04-27T01:51:24.461Z,977.00
2023-04-27T01:52:24.468Z,956.00
2023-04-27T01:53:24.452Z,967.00
2023-04-27T01:54:25.596Z,955.00
2023-04-27T01:55:24.450Z,973.00
2023-04-27T01:56:24.443Z,976.00
2023-04-27T01:57:24.494Z,963.00
2023-04-27T01:58:24.543Z,949.00
2023-04-27T01:59:24.577Z,928.00
2023-04-27T02:00:24.651Z,967.00
2023-04-27T02:01:24.723Z,955.00
2023-04-27T02:02:24.894Z,948.00
2023-04-27T02:03:24.931Z,940.00
2023-04-27T02:04:24.897Z,956.00
2023-04-27T02:05:24.914Z,944.00
2023-04-27T02:06:24.985Z,946.00
2023-04-27T02:07:25.018Z,950.00
2023-04-27T02:08:25.057Z,953.00
2023-04-27T02:09:25.140Z,946.00
2023-04-27T02:10:25.197Z,943.00
2023-04-27T02:11:25.238Z,923.00
2023-04-27T02:12:25.307Z,920.00
2023-04-27T02:13:25.376Z,949.00
2023-04-27T02:14:25.450Z,920.00
2023-04-27T02:15:25.510Z,947.00
2023-04-27T02:16:25.660Z,938.00
2023-04-27T02:17:25.610Z,945.00
2023-04-27T02:18:25.674Z,941.00
2023-04-27T02:19:25.714Z,929.00
2023-04-27T02:20:25.778Z,944.00
2023-04-27T02:21:25.834Z,920.00
2023-04-27T02:22:25.863Z,908.00
2023-04-27T02:23:25.916Z,926.00
2023-04-27T02:24:25.960Z,914.00
2023-04-27T02:25:25.994Z,923.00
2023-04-27T02:26:26.011Z,915.00
2023-04-27T02:27:26.067Z,921.00
2023-04-27T02:28:26.145Z,919.00
2023-04-27T02:29:26.197Z,925.00
2023-04-27T02:30:26.264Z,940.00
2023-04-27T02:31:26.347Z,929.00
2023-04-27T02:32:26.393Z,953.00
2023-04-27T02:33:26.435Z,960.00
2023-04-27T02:34:26.477Z,969.00
2023-04-27T02:35:26.562Z,960.00
2023-04-27T02:36:26.587Z,974.00
2023-04-27T02:37:26.619Z,946.00
2023-04-27T02:38:26.643Z,952.00
2023-04-27T02:39:26.685Z,957.00
2023-04-27T02:40:26.714Z,975.00
2023-04-27T02:41:26.741Z,988.00
2023-04-27T02:42:26.795Z,981.00
2023-04-27T02:43:26.830Z,975.00
2023-04-27T02:44:26.885Z,985.00
2023-04-27T02:45:26.901Z,990.00
2023-04-27T02:46:27.053Z,964.00
2023-04-27T02:47:27.000Z,1000.00
2023-04-27T02:48:26.989Z,984.00
2023-04-27T02:49:27.036Z,999.00
2023-04-27T02:50:27.103Z,992.00
2023-04-27T02:51:27.129Z,980.00
2023-04-27T02:52:27.184Z,982.00
2023-04-27T02:53:27.214Z,993.00
2023-04-27T02:54:27.271Z,997.00
2023-04-27T02:55:27.295Z,993.00
2023-04-27T02:56:27.338Z,988.00
2023-04-27T02:57:27.413Z,991.00
2023-04-27T02:58:27.475Z,990.00
2023-04-27T02:59:27.502Z,990.00
2023-04-27T03:00:27.547Z,989.00
2023-04-27T03:01:27.601Z,993.00
2023-04-27T03:02:27.732Z,970.00
2023-04-27T03:03:27.861Z,979.00
2023-04-27T03:04:27.941Z,976.00
2023-04-27T03:05:27.801Z,960.00
2023-04-27T03:06:27.849Z,963.00
2023-04-27T03:07:27.882Z,953.00
2023-04-27T03:08:27.934Z,943.00
2023-04-27T03:09:27.995Z,941.00
2023-04-27T03:10:28.018Z,947.00
2023-04-27T03:11:28.084Z,956.00
2023-04-27T03:12:28.133Z,942.00
2023-04-27T03:13:28.178Z,954.00
2023-04-27T03:14:28.264Z,948.00
2023-04-27T03:15:28.313Z,947.00
2023-04-27T03:16:28.442Z,934.00
2023-04-27T03:17:28.477Z,950.00
2023-04-27T03:18:28.497Z,943.00
2023-04-27T03:19:28.518Z,953.00
2023-04-27T03:20:28.569Z,968.00
2023-04-27T03:21:28.604Z,968.00
2023-04-27T03:22:28.622Z,953.00
2023-04-27T03:23:28.652Z,955.00
2023-04-27T03:24:28.717Z,970.00
2023-04-27T03:25:28.759Z,965.00
2023-04-27T03:26:28.809Z,970.00
2023-04-27T03:27:28.852Z,954.00
2023-04-27T03:28:28.887Z,958.00
2023-04-27T03:29:28.926Z,955.00
2023-04-27T03:30:28.972Z,946.00
2023-04-27T03:31:29.103Z,955.00
2023-04-27T03:32:29.089Z,961.00
2023-04-27T03:33:29.095Z,966.00
2023-04-27T03:34:29.118Z,970.00
2023-04-27T03:35:29.189Z,960.00
2023-04-27T03:36:29.232Z,953.00
2023-04-27T03:37:29.271Z,980.00
2023-04-27T03:38:29.329Z,969.00
2023-04-27T03:39:29.358Z,984.00
2023-04-27T03:40:29.405Z,999.00
2023-04-27T03:41:29.431Z,991.00
2023-04-27T03:42:29.503Z,999.00
2023-04-27T03:43:29.545Z,998.00
2023-04-27T03:44:29.612Z,993.00
2023-04-27T03:45:29.662Z,995.00
2023-04-27T03:46:29.711Z,981.00
2023-04-27T03:47:29.806Z,998.00
2023-04-27T03:48:29.825Z,1002.00
2023-04-27T03:49:29.845Z,1015.00
2023-04-27T03:50:30.365Z,1009.00
2023-04-27T03:51:29.936Z,990.00
2023-04-27T03:52:29.978Z,1008.00
2023-04-27T03:53:30.059Z,1002.00
2023-04-27T03:54:30.079Z,988.00
2023-04-27T03:55:30.139Z,1003.00
2023-04-27T03:56:30.207Z,1010.00
2023-04-27T03:57:30.240Z,992.00
2023-04-27T03:58:30.311Z,1002.00
2023-04-27T03:59:30.396Z,1010.00
2023-04-27T04:00:30.419Z,994.00
2023-04-27T04:01:30.477Z,1004.00
2023-04-27T04:02:30.603Z,998.00
2023-04-27T04:03:30.807Z,1008.00
2023-04-27T04:04:30.736Z,987.00
2023-04-27T04:05:30.683Z,1008.00
2023-04-27T04:06:30.752Z,982.00
2023-04-27T04:07:30.803Z,1012.00
2023-04-27T04:08:30.852Z,990.00
2023-04-27T04:09:30.912Z,1005.00
2023-04-27T04:10:30.933Z,1012.00
2023-04-27T04:11:30.990Z,979.00
2023-04-27T04:12:31.038Z,1002.00
2023-04-27T04:13:31.083Z,990.00
2023-04-27T04:14:31.163Z,1004.00
2023-04-27T04:15:31.198Z,1004.00
2023-04-27T04:16:31.298Z,1012.00
2023-04-27T04:17:31.349Z,999.00
2023-04-27T04:18:31.354Z,997.00
2023-04-27T04:19:31.406Z,997.00
2023-04-27T04:20:31.470Z,996.00
2023-04-27T04:21:31.486Z,1004.00
2023-04-27T04:22:31.524Z,988.00
2023-04-27T04:23:31.562Z,995.00
2023-04-27T04:24:31.600Z,973.00
2023-04-27T04:25:31.631Z,987.00
2023-04-27T04:26:31.673Z,973.00
2023-04-27T04:27:31.761Z,980.00
2023-04-27T04:28:31.774Z,980.00
2023-04-27T04:29:31.851Z,962.00
2023-04-27T04:30:31.897Z,981.00
2023-04-27T04:31:31.959Z,975.00
2023-04-27T04:32:32.038Z,984.00
2023-04-27T04:33:32.026Z,974.00
2023-04-27T04:34:32.098Z,956.00
2023-04-27T04:35:32.129Z,969.00
2023-04-27T04:36:32.226Z,962.00
2023-04-27T04:37:32.239Z,963.00
2023-04-27T04:38:32.262Z,969.00
2023-04-27T04:39:32.313Z,964.00
2023-04-27T04:40:32.362Z,961.00
2023-04-27T04:41:32.425Z,961.00
2023-04-27T04:42:32.474Z,970.00
2023-04-27T04:43:32.541Z,981.00
2023-04-27T04:44:32.593Z,953.00
2023-04-27T04:45:32.668Z,982.00
2023-04-27T04:46:32.752Z,970.00
2023-04-27T04:47:32.875Z,968.00
2023-04-27T04:48:32.856Z,978.00
2023-04-27T04:49:32.891Z,991.00
2023-04-27T04:50:32.944Z,982.00
2023-04-27T04:51:32.967Z,969.00
2023-04-27T04:52:33.014Z,1002.00
2023-04-27T04:53:33.054Z,1014.00
2023-04-27T04:54:33.101Z,1012.00
2023-04-27T04:55:33.140Z,1002.00
2023-04-27T04:56:33.223Z,1017.00
2023-04-27T04:57:33.269Z,1028.00
2023-04-27T04:58:33.324Z,1028.00
2023-04-27T04:59:33.372Z,1045.00
2023-04-27T05:00:33.419Z,960.00
2023-04-27T05:01:33.502Z,922.00
2023-04-27T05:02:33.579Z,932.00
2023-04-27T05:03:33.690Z,961.00
2023-04-27T05:04:33.641Z,989.00
2023-04-27T05:05:33.617Z,1022.00
2023-04-27T05:06:33.704Z,1061.00
2023-04-27T05:07:33.737Z,1080.00
2023-04-27T05:08:33.769Z,1063.00
2023-04-27T05:09:33.816Z,1062.00
2023-04-27T05:10:33.867Z,1112.00
2023-04-27T05:11:33.906Z,1114.00
2023-04-27T05:12:33.917Z,1113.00
2023-04-27T05:13:33.987Z,1101.00
2023-04-27T05:14:34.051Z,1106.00
2023-04-27T05:15:34.098Z,1094.00
2023-04-27T05:16:34.235Z,1099.00
2023-04-27T05:17:34.281Z,1080.00
2023-04-27T05:18:34.305Z,1082.00
2023-04-27T05:19:34.369Z,1095.00
2023-04-27T05:20:34.445Z,1010.00
2023-04-27T05:21:34.473Z,1051.00
2023-04-27T05:22:34.525Z,1080.00
2023-04-27T05:23:34.588Z,1081.00
2023-04-27T05:24:34.644Z,1154.00
2023-04-27T05:25:34.704Z,1168.00
2023-04-27T05:26:34.794Z,1174.00
2023-04-27T05:27:34.806Z,1092.00
2023-04-27T05:28:34.858Z,1067.00
2023-04-27T05:29:34.930Z,1059.00
2023-04-27T05:30:35.000Z,1078.00
2023-04-27T05:31:35.094Z,1103.00
2023-04-27T05:32:35.131Z,1156.00
2023-04-27T05:33:35.156Z,1183.00
2023-04-27T05:34:35.216Z,1194.00
2023-04-27T05:35:35.330Z,1232.00
2023-04-27T05:36:35.349Z,1209.00
2023-04-27T05:37:35.853Z,1240.00
2023-04-27T05:38:35.469Z,1282.00
2023-04-27T05:39:35.537Z,1271.00
2023-04-27T05:40:35.834Z,1282.00
2023-04-27T05:41:35.638Z,1315.00
2023-04-27T05:42:35.846Z,1382.00
2023-04-27T05:43:35.773Z,1460.00
2023-04-27T05:44:35.809Z,1507.00
2023-04-27T05:45:35.878Z,1538.00
2023-04-27T05:46:38.377Z,1601.00
2023-04-27T05:47:35.917Z,1640.00
2023-04-27T05:48:35.889Z,1686.00
2023-04-27T05:49:35.899Z,1708.00
2023-04-27T05:50:35.884Z,1742.00
2023-04-27T05:51:35.866Z,1767.00
2023-04-27T05:52:37.617Z,1802.00
2023-04-27T05:53:35.852Z,1803.00
2023-04-27T05:54:35.836Z,1806.00
2023-04-27T05:55:35.854Z,1817.00
2023-04-27T05:56:35.821Z,1841.00
2023-04-27T05:57:35.844Z,1864.00
2023-04-27T05:58:35.811Z,1876.00
2023-04-27T05:59:35.810Z,1877.00
2023-04-27T06:00:35.797Z,1871.00
2023-04-27T06:01:35.816Z,1878.00
2023-04-27T06:02:35.931Z,1853.00
2023-04-27T06:03:35.955Z,1876.00
2023-04-27T06:04:35.818Z,1910.00
2023-04-27T06:05:35.837Z,1938.00
2023-04-27T06:06:35.837Z,1934.00
2023-04-27T06:07:35.854Z,1949.00
2023-04-27T06:08:35.860Z,1932.00
2023-04-27T06:09:35.846Z,1936.00
2023-04-27T06:10:35.862Z,1949.00
2023-04-27T06:11:35.853Z,1961.00
2023-04-27T06:12:36.375Z,1973.00
2023-04-27T06:13:35.877Z,1801.00
2023-04-27T06:14:35.887Z,1886.00
2023-04-27T06:15:35.928Z,1941.00
2023-04-27T06:16:35.942Z,1954.00
2023-04-27T06:17:35.904Z,1968.00
2023-04-27T06:18:35.883Z,1863.00
2023-04-27T06:19:35.905Z,1880.00
2023-04-27T06:20:35.917Z,1924.00
2023-04-27T06:21:35.899Z,1938.00
2023-04-27T06:22:35.924Z,1981.00
2023-04-27T06:23:35.956Z,2001.00
2023-04-27T06:24:35.975Z,1969.00
2023-04-27T06:25:36.024Z,1971.00
2023-04-27T06:26:36.063Z,1989.00
2023-04-27T06:27:36.083Z,1963.00
2023-04-27T06:28:36.127Z,1902.00
2023-04-27T06:29:36.179Z,1913.00
2023-04-27T06:30:37.661Z,1587.00
2023-04-27T06:31:36.216Z,1476.00
2023-04-27T06:32:36.228Z,1453.00
2023-04-27T06:33:36.191Z,1524.00
2023-04-27T06:34:36.176Z,1559.00
2023-04-27T06:35:36.383Z,1624.00
2023-04-27T06:36:36.185Z,1698.00
2023-04-27T06:37:36.161Z,1770.00
2023-04-27T06:38:36.178Z,1832.00
2023-04-27T06:39:36.158Z,1881.00
2023-04-27T06:40:36.153Z,1909.00
2023-04-27T06:41:36.144Z,1930.00
2023-04-27T06:42:36.433Z,1982.00
2023-04-27T06:43:36.131Z,2021.00
2023-04-27T06:44:36.126Z,2046.00
2023-04-27T06:45:36.214Z,1991.00
2023-04-27T06:46:36.224Z,2015.00
2023-04-27T06:47:36.379Z,2027.00
2023-04-27T06:48:36.114Z,1997.00
2023-04-27T06:49:36.082Z,1975.00
2023-04-27T06:50:36.088Z,2014.00
2023-04-27T06:51:36.072Z,2049.00
2023-04-27T06:52:36.090Z,2052.00
2023-04-27T06:53:36.092Z,2045.00
2023-04-27T06:54:36.054Z,2035.00
2023-04-27T06:55:36.063Z,2043.00
2023-04-27T06:56:36.142Z,1998.00
2023-04-27T06:57:36.055Z,1991.00
2023-04-27T06:58:36.024Z,1999.00
2023-04-27T06:59:36.017Z,1977.00
2023-04-27T07:00:36.374Z,1751.00
2023-04-27T07:01:36.019Z,1890.00
2023-04-27T07:02:36.102Z,1929.00
2023-04-27T07:03:36.114Z,1911.00
2023-04-27T07:04:36.013Z,1903.00
2023-04-27T07:05:36.002Z,1906.00
2023-04-27T07:06:35.983Z,2390.00
2023-04-27T07:07:35.974Z,2851.00
2023-04-27T07:08:36.419Z,2463.00
2023-04-27T07:09:35.981Z,2115.00
2023-04-27T07:10:35.982Z,2038.00
2023-04-27T07:11:35.957Z,1943.00
2023-04-27T07:12:35.939Z,1942.00
2023-04-27T07:13:35.960Z,1968.00
2023-04-27T07:14:35.988Z,1869.00
2023-04-27T07:15:35.933Z,1728.00
2023-04-27T07:16:35.954Z,1858.00
2023-04-27T07:17:35.916Z,4990.00
2023-04-27T07:18:36.395Z,3316.00
2023-04-27T07:19:35.917Z,2489.00
2023-04-27T07:20:35.875Z,2258.00
2023-04-27T07:21:35.892Z,2157.00
2023-04-27T07:22:35.942Z,2005.00
2023-04-27T07:23:36.399Z,1827.00
2023-04-27T07:24:36.042Z,1794.00
2023-04-27T07:25:36.103Z,1794.00
2023-04-27T07:26:36.161Z,1775.00
2023-04-27T07:27:36.223Z,1796.00
2023-04-27T07:28:36.415Z,1690.00
2023-04-27T07:29:36.353Z,1623.00
2023-04-27T07:30:36.417Z,1684.00
2023-04-27T07:31:36.518Z,1693.00
2023-04-27T07:32:36.559Z,1740.00
2023-04-27T07:33:36.612Z,1831.00
2023-04-27T07:34:49.006Z,1903.00
2023-04-27T07:35:37.650Z,1906.00
2023-04-27T07:36:36.625Z,1915.00
2023-04-27T07:37:36.625Z,1937.00
2023-04-27T07:38:36.617Z,1962.00
2023-04-27T07:39:36.602Z,1883.00
2023-04-27T07:40:36.609Z,1928.00
2023-04-27T07:41:36.595Z,1915.00
2023-04-27T07:42:36.584Z,1934.00
2023-04-27T07:43:36.580Z,1925.00
2023-04-27T07:44:36.582Z,1898.00
2023-04-27T07:45:36.637Z,1899.00
2023-04-27T07:46:36.659Z,1900.00
2023-04-27T07:47:36.719Z,1898.00
2023-04-27T07:48:36.744Z,1901.00
2023-04-27T07:49:36.791Z,1820.00
2023-04-27T07:50:36.864Z,1622.00
2023-04-27T07:51:36.905Z,1729.00
2023-04-27T07:52:36.959Z,1787.00
2023-04-27T07:53:37.005Z,1783.00
2023-04-27T07:54:37.037Z,1798.00
2023-04-27T07:55:37.092Z,1773.00
2023-04-27T07:56:37.135Z,1681.00
2023-04-27T07:57:37.180Z,1689.00
2023-04-27T07:58:37.248Z,1746.00
2023-04-27T07:59:37.298Z,1792.00
2023-04-27T08:00:37.329Z,1815.00
2023-04-27T08:01:37.420Z,1667.00
2023-04-27T08:02:37.675Z,1727.00
2023-04-27T08:03:37.646Z,1772.00
2023-04-27T08:04:37.840Z,1776.00
2023-04-27T08:05:37.719Z,1660.00
2023-04-27T08:06:38.356Z,1500.00
2023-04-27T08:07:42.780Z,1403.00
2023-04-27T08:08:38.936Z,1404.00
2023-04-27T08:09:37.654Z,1433.00
2023-04-27T08:10:37.647Z,1499.00
2023-04-27T08:11:37.627Z,1599.00
2023-04-27T08:12:37.633Z,1656.00
2023-04-27T08:13:37.621Z,1561.00
2023-04-27T08:14:37.616Z,1604.00
2023-04-27T08:15:37.647Z,1586.00
2023-04-27T08:16:37.728Z,1402.00
2023-04-27T08:17:37.608Z,1481.00
2023-04-27T08:18:37.597Z,1601.00
2023-04-27T08:19:37.576Z,1589.00
2023-04-27T08:20:37.573Z,1537.00
2023-04-27T08:21:37.624Z,1369.00
2023-04-27T08:22:37.668Z,1236.00
2023-04-27T08:23:37.727Z,918.00
2023-04-27T08:24:37.808Z,1026.00
2023-04-27T08:25:37.863Z,1034.00
2023-04-27T08:26:37.884Z,1192.00
2023-04-27T08:27:37.875Z,1343.00
2023-04-27T08:28:37.878Z,1397.00
2023-04-27T08:29:37.865Z,1310.00
2023-04-27T08:30:37.870Z,1286.00
2023-04-27T08:31:37.909Z,1240.00
2023-04-27T08:32:37.919Z,1390.00
2023-04-27T08:33:37.876Z,1220.00
2023-04-27T08:34:37.886Z,1089.00
2023-04-27T08:35:37.886Z,1069.00
2023-04-27T08:36:37.894Z,696.00
2023-04-27T08:37:37.906Z,606.00
2023-04-27T08:38:37.958Z,619.00
2023-04-27T08:39:38.011Z,683.00
2023-04-27T08:40:38.106Z,704.00
2023-04-27T08:41:38.421Z,662.00
2023-04-27T08:42:38.195Z,719.00
2023-04-27T08:43:38.252Z,742.00
2023-04-27T08:44:38.326Z,709.00
2023-04-27T08:45:38.564Z,689.00
2023-04-27T08:46:38.464Z,803.00
2023-04-27T08:47:43.390Z,833.00
2023-04-27T08:48:39.465Z,807.00
2023-04-27T08:49:38.455Z,831.00
2023-04-27T08:50:38.454Z,844.00
2023-04-27T08:51:38.453Z,905.00
2023-04-27T08:52:38.445Z,1064.00
2023-04-27T08:53:38.933Z,1104.00
2023-04-27T08:54:38.419Z,1237.00
2023-04-27T08:55:38.423Z,1093.00
2023-04-27T08:56:38.402Z,1175.00
2023-04-27T08:57:38.395Z,1546.00
2023-04-27T08:58:38.454Z,1290.00
2023-04-27T08:59:38.390Z,1158.00
2023-04-27T09:00:38.373Z,1142.00
2023-04-27T09:01:38.407Z,983.00
2023-04-27T09:02:38.493Z,913.00
2023-04-27T09:03:38.535Z,819.00
2023-04-27T09:04:38.492Z,889.00
2023-04-27T09:05:44.152Z,859.00
2023-04-27T09:06:39.425Z,837.00
2023-04-27T09:07:38.424Z,864.00
2023-04-27T09:08:38.403Z,949.00
2023-04-27T09:09:38.438Z,908.00
2023-04-27T09:10:38.404Z,732.00
2023-04-27T09:11:38.404Z,654.00
2023-04-27T09:12:38.372Z,629.00
2023-04-27T09:13:38.380Z,650.00
2023-04-27T09:14:38.376Z,713.00
2023-04-27T09:15:38.360Z,1122.00
2023-04-27T09:16:38.390Z,1202.00
2023-04-27T09:17:38.377Z,1343.00
2023-04-27T09:18:38.380Z,1818.00
2023-04-27T09:19:38.330Z,1308.00
2023-04-27T09:20:38.337Z,1790.00
2023-04-27T09:21:38.317Z,1821.00
2023-04-27T09:22:38.324Z,1644.00
2023-04-27T09:23:38.354Z,1214.00
2023-04-27T09:24:38.320Z,882.00
2023-04-27T09:25:38.324Z,784.00
2023-04-27T09:26:38.310Z,527.00
2023-04-27T09:27:38.286Z,403.00
2023-04-27T09:28:38.489Z,429.00
2023-04-27T09:29:38.299Z,509.00
2023-04-27T09:30:38.281Z,594.00
2023-04-27T09:31:38.470Z,654.00
2023-04-27T09:32:38.294Z,787.00
2023-04-27T09:33:38.258Z,876.00
2023-04-27T09:34:38.222Z,1052.00
2023-04-27T09:35:38.229Z,1054.00
2023-04-27T09:36:38.454Z,1056.00
2023-04-27T09:37:38.211Z,1227.00
2023-04-27T09:38:38.207Z,1428.00
2023-04-27T09:39:38.202Z,1386.00
2023-04-27T09:40:38.241Z,1407.00
2023-04-27T09:41:38.454Z,1417.00
2023-04-27T09:42:38.329Z,1466.00
2023-04-27T09:43:38.377Z,1370.00
2023-04-27T09:44:38.404Z,1448.00
2023-04-27T09:45:38.481Z,1596.00
2023-04-27T09:46:38.465Z,1625.00
2023-04-27T09:47:38.512Z,1597.00
2023-04-27T09:48:38.521Z,1585.00
2023-04-27T09:49:38.522Z,1590.00
2023-04-27T09:50:38.541Z,1606.00
2023-04-27T09:51:38.972Z,1693.00
2023-04-27T09:52:38.544Z,1843.00
2023-04-27T09:53:38.544Z,1874.00
2023-04-27T09:54:38.533Z,1939.00
2023-04-27T09:55:38.569Z,1895.00
2023-04-27T09:56:38.943Z,1863.00
2023-04-27T09:57:38.573Z,1797.00
2023-04-27T09:58:38.593Z,1823.00
2023-04-27T09:59:38.947Z,1794.00
2023-04-27T10:00:38.667Z,1838.00
2023-04-27T10:01:38.722Z,1878.00
2023-04-27T10:02:52.181Z,1939.00
2023-04-27T10:03:39.847Z,1902.00
2023-04-27T10:04:38.886Z,1870.00
2023-04-27T10:05:38.761Z,1918.00
2023-04-27T10:06:38.768Z,1937.00
2023-04-27T10:07:38.743Z,2024.00
2023-04-27T10:08:38.747Z,2014.00
2023-04-27T10:09:38.741Z,1972.00
2023-04-27T10:10:38.751Z,1995.00
2023-04-27T10:11:38.732Z,2007.00
2023-04-27T10:12:38.778Z,2019.00
2023-04-27T10:13:38.822Z,2038.00
2023-04-27T10:14:38.873Z,2078.00
2023-04-27T10:15:38.893Z,2078.00
2023-04-27T10:16:38.965Z,2133.00
2023-04-27T10:17:39.012Z,2141.00
2023-04-27T10:18:38.986Z,2067.00
2023-04-27T10:19:39.048Z,2058.00
2023-04-27T10:20:39.056Z,2003.00
2023-04-27T10:21:39.064Z,2081.00
2023-04-27T10:22:39.095Z,1752.00
2023-04-27T10:23:39.141Z,1587.00
2023-04-27T10:24:39.175Z,1492.00
2023-04-27T10:25:39.208Z,1568.00
2023-04-27T10:26:40.025Z,1468.00
2023-04-27T10:27:39.336Z,1489.00
2023-04-27T10:28:39.394Z,1577.00
2023-04-27T10:29:39.428Z,1689.00
2023-04-27T10:30:39.699Z,1813.00
2023-04-27T10:31:39.994Z,1715.00
2023-04-27T10:32:39.583Z,1829.00
2023-04-27T10:33:39.588Z,1885.00
2023-04-27T10:34:39.649Z,1875.00
2023-04-27T10:35:39.651Z,1996.00
2023-04-27T10:36:39.662Z,2039.00
2023-04-27T10:37:39.709Z,2001.00
2023-04-27T10:38:39.723Z,1984.00
2023-04-27T10:39:46.969Z,1982.00
2023-04-27T10:40:40.753Z,1698.00
2023-04-27T10:41:39.745Z,400.00
2023-04-27T10:42:39.754Z,400.00
2023-04-27T10:43:39.731Z,400.00
2023-04-27T10:44:39.726Z,400.00
2023-04-27T10:45:39.737Z,400.00
2023-04-27T10:46:39.796Z,400.00
2023-04-27T10:47:39.736Z,400.00
2023-04-27T10:48:39.708Z,400.00
2023-04-27T10:49:39.693Z,400.00
2023-04-27T10:50:39.701Z,400.00
2023-04-27T10:51:39.999Z,400.00
2023-04-27T10:52:39.672Z,400.00
2023-04-27T10:53:39.720Z,400.00
2023-04-27T10:54:39.978Z,400.00
2023-04-27T10:55:39.758Z,400.00
2023-04-27T10:56:39.981Z,400.00
2023-04-27T10:57:40.168Z,400.00
2023-04-27T10:59:39.866Z,446.00
2023-04-27T11:00:39.856Z,450.00
2023-04-27T11:01:39.867Z,500.00
2023-04-27T11:02:39.921Z,497.00
2023-04-27T11:03:40.050Z,511.00
2023-04-27T11:04:39.837Z,599.00
2023-04-27T11:05:39.823Z,561.00
2023-04-27T11:06:39.834Z,565.00
2023-04-27T11:07:39.831Z,609.00
2023-04-27T11:08:39.849Z,676.00
2023-04-27T11:09:39.794Z,763.00
2023-04-27T11:10:39.789Z,805.00
2023-04-27T11:11:39.803Z,625.00
2023-04-27T11:12:39.805Z,575.00
2023-04-27T11:13:39.800Z,677.00
2023-04-27T11:14:39.756Z,704.00
2023-04-27T11:15:39.773Z,592.00
2023-04-27T11:16:40.061Z,608.00
2023-04-27T11:17:39.803Z,612.00
2023-04-27T11:18:39.736Z,640.00
2023-04-27T11:19:39.717Z,626.00
2023-04-27T11:20:39.718Z,500.00
2023-04-27T11:21:40.001Z,513.00
2023-04-27T11:22:39.725Z,773.00
2023-04-27T11:23:39.706Z,1234.00
2023-04-27T11:24:39.715Z,1905.00
2023-04-27T11:25:39.693Z,1892.00
2023-04-27T11:26:39.690Z,2027.00
2023-04-27T11:27:39.684Z,2272.00
2023-04-27T11:28:39.676Z,2300.00
2023-04-27T11:29:39.701Z,2461.00
2023-04-27T11:30:39.649Z,2751.00
2023-04-27T11:31:39.712Z,2560.00
2023-04-27T11:32:39.680Z,2629.00
2023-04-27T11:33:39.642Z,2700.00
2023-04-27T11:34:39.639Z,2558.00
2023-04-27T11:35:39.632Z,2545.00
2023-04-27T11:36:39.607Z,2691.00
2023-04-27T11:37:39.618Z,2708.00
2023-04-27T11:38:39.681Z,2732.00
2023-04-27T11:39:39.602Z,2746.00
2023-04-27T11:40:39.578Z,2774.00
2023-04-27T11:41:39.598Z,2854.00
2023-04-27T11:42:39.583Z,2917.00
2023-04-27T11:43:39.558Z,2965.00
2023-04-27T11:44:39.574Z,3007.00
2023-04-27T11:45:39.567Z,3017.00
2023-04-27T11:46:39.596Z,3026.00
2023-04-27T11:47:39.579Z,3029.00
2023-04-27T11:48:39.565Z,3058.00
2023-04-27T11:49:39.544Z,3114.00
2023-04-27T11:50:39.519Z,3136.00
2023-04-27T11:51:39.521Z,3201.00
2023-04-27T11:52:39.514Z,3251.00
2023-04-27T11:53:39.543Z,3267.00
2023-04-27T11:54:39.556Z,3299.00
2023-04-27T11:55:39.479Z,3335.00
2023-04-27T11:56:39.502Z,3397.00
2023-04-27T11:57:39.464Z,3425.00
2023-04-27T11:58:39.621Z,3461.00
2023-04-27T11:59:39.468Z,3461.00
2023-04-27T12:00:39.445Z,3479.00
2023-04-27T12:01:39.461Z,3531.00
2023-04-27T12:02:39.621Z,3593.00
2023-04-27T12:03:39.705Z,3607.00
2023-04-27T12:04:39.741Z,3640.00
2023-04-27T12:05:39.680Z,3675.00
2023-04-27T12:06:39.769Z,3683.00
2023-04-27T12:07:39.721Z,3680.00
2023-04-27T12:08:39.750Z,3678.00
2023-04-27T12:09:39.769Z,3662.00
2023-04-27T12:10:39.802Z,3689.00
2023-04-27T12:11:39.842Z,3694.00
2023-04-27T12:12:39.877Z,3692.00
2023-04-27T12:13:39.912Z,3672.00
2023-04-27T12:14:39.928Z,3680.00
2023-04-27T12:15:39.954Z,3701.00
2023-04-27T12:16:40.050Z,3671.00
2023-04-27T12:17:40.075Z,3675.00